createdAt,value
2018-11-14T09:39:09.378Z,1004.23
2018-11-14T09:40:09.507Z,1004.23
2018-11-14T09:41:09.670Z,1004.24
2018-11-14T09:42:09.778Z,1004.22
2018-11-14T09:43:09.905Z,1004.22
2018-11-14T09:44:10.051Z,1004.27
2018-11-14T09:45:10.187Z,1004.28
2018-11-14T09:46:10.321Z,1004.27
2018-11-14T09:47:10.471Z,1004.31
2018-11-14T09:48:10.598Z,1004.29
2018-11-14T09:49:10.793Z,1004.31
2018-11-14T09:50:10.952Z,1004.25
2018-11-14T09:51:10.958Z,1004.28
2018-11-14T09:52:11.089Z,1004.23
2018-11-14T09:53:11.244Z,1004.22
2018-11-14T09:54:11.355Z,1004.22
2018-11-14T09:55:11.486Z,1004.23
2018-11-14T09:56:11.619Z,1004.21
2018-11-14T09:57:11.750Z,1004.23
2018-11-14T09:58:11.890Z,1004.20
2018-11-14T09:59:12.018Z,1004.14
2018-11-14T10:00:12.152Z,1004.08
2018-11-14T10:01:12.283Z,1004.05
2018-11-14T10:02:12.421Z,1004.08
2018-11-14T10:03:12.553Z,1004.06
2018-11-14T10:04:12.688Z,1004.05
2018-11-14T10:05:12.826Z,1004.04
2018-11-14T10:06:12.953Z,1004.08
2018-11-14T10:07:13.098Z,1004.07
2018-11-14T10:08:13.230Z,1004.07
2018-11-14T10:09:13.362Z,1004.07
2018-11-14T10:10:13.506Z,1004.03
2018-11-14T10:11:13.639Z,1003.99
2018-11-14T10:12:13.771Z,1003.96
2018-11-14T10:13:13.908Z,1003.95
2018-11-14T10:14:14.034Z,1004.01
2018-11-14T10:15:14.168Z,1004.01
2018-11-14T10:16:14.303Z,1003.99
2018-11-14T10:17:14.429Z,1003.98
2018-11-14T10:18:14.564Z,1003.98
2018-11-14T10:19:14.697Z,1003.97
2018-11-14T10:20:14.831Z,1003.97
2018-11-14T10:21:15.020Z,1003.88
2018-11-14T10:22:15.089Z,1003.91
2018-11-14T10:23:15.220Z,1003.91
2018-11-14T10:24:15.354Z,1003.90
2018-11-14T10:25:15.497Z,1003.94
2018-11-14T10:26:15.637Z,1003.94
2018-11-14T10:27:15.767Z,1003.97
2018-11-14T10:28:15.901Z,1003.93
2018-11-14T10:29:16.032Z,1003.93
2018-11-14T10:30:16.170Z,1003.94
2018-11-14T10:31:16.299Z,1003.93
2018-11-14T10:32:16.431Z,1003.95
2018-11-14T10:33:16.566Z,1003.96
2018-11-14T10:34:16.695Z,1003.92
2018-11-14T10:35:16.830Z,1003.92
2018-11-14T10:36:17.742Z,1003.89
2018-11-14T10:37:17.143Z,1003.91
2018-11-14T10:38:17.268Z,1003.92
2018-11-14T10:39:18.228Z,1003.91
2018-11-14T10:40:17.518Z,1003.92
2018-11-14T10:41:17.649Z,1004.01
2018-11-14T10:42:17.783Z,1003.98
2018-11-14T10:43:17.911Z,1003.97
2018-11-14T10:44:18.051Z,1004.01
2018-11-14T10:45:18.183Z,1004.02
2018-11-14T10:46:18.318Z,1004.00
2018-11-14T10:47:18.449Z,1004.01
2018-11-14T10:48:18.590Z,1003.98
2018-11-14T10:49:18.728Z,1004.02
2018-11-14T10:50:18.852Z,1003.99
2018-11-14T10:51:18.987Z,1004.00
2018-11-14T10:52:19.124Z,1004.01
2018-11-14T10:53:19.263Z,1004.03
2018-11-14T10:54:19.400Z,1004.02
2018-11-14T10:55:19.530Z,1004.03
2018-11-14T10:56:19.662Z,1004.04
2018-11-14T10:57:19.790Z,1004.07
2018-11-14T10:58:19.976Z,1004.03
2018-11-14T10:59:20.056Z,1004.02
2018-11-14T11:00:20.190Z,1004.06
2018-11-14T11:01:20.324Z,1004.06
2018-11-14T11:02:20.452Z,1004.07
2018-11-14T11:03:20.588Z,1004.08
2018-11-14T11:04:20.727Z,1004.05
2018-11-14T11:05:20.856Z,1004.04
2018-11-14T11:06:20.988Z,1004.01
2018-11-14T11:07:21.122Z,1003.98
2018-11-14T11:08:21.309Z,1003.93
2018-11-14T11:09:21.424Z,1003.94
2018-11-14T11:10:21.550Z,1003.90
2018-11-14T11:11:21.680Z,1003.92
2018-11-14T11:12:21.839Z,1003.97
2018-11-14T11:13:21.968Z,1003.97
2018-11-14T11:14:22.101Z,1004.03
2018-11-14T11:15:22.234Z,1004.02
2018-11-14T11:16:22.387Z,1003.97
2018-11-14T11:17:22.526Z,1004.01
2018-11-14T11:18:22.649Z,1003.98
2018-11-14T11:19:22.785Z,1004.01
2018-11-14T11:20:22.918Z,1003.99
2018-11-14T11:21:23.049Z,1003.93
2018-11-14T11:22:23.179Z,1003.91
2018-11-14T11:23:23.373Z,1003.82
2018-11-14T11:24:23.463Z,1003.80
2018-11-14T11:25:23.602Z,1003.78
2018-11-14T11:26:23.727Z,1003.75
2018-11-14T11:27:23.881Z,1003.69
2018-11-14T11:28:24.008Z,1003.69
2018-11-14T11:29:24.146Z,1003.67
2018-11-14T11:30:24.280Z,1003.69
2018-11-14T11:31:24.454Z,1003.70
2018-11-14T11:32:24.582Z,1003.74
2018-11-14T11:33:24.711Z,1003.78
2018-11-14T11:34:24.858Z,1003.73
2018-11-14T11:35:25.012Z,1003.77
2018-11-14T11:36:25.142Z,1003.75
2018-11-14T11:37:25.281Z,1003.79
2018-11-14T11:38:25.486Z,1003.80
2018-11-14T11:39:25.558Z,1003.78
2018-11-14T11:40:25.697Z,1003.84
2018-11-14T11:41:25.835Z,1003.83
2018-11-14T11:42:25.971Z,1003.88
2018-11-14T11:43:26.105Z,1003.84
2018-11-14T11:44:26.286Z,1003.82
2018-11-14T11:45:26.384Z,1003.81
2018-11-14T11:46:26.520Z,1003.79
2018-11-14T11:47:26.680Z,1003.83
2018-11-14T11:48:26.814Z,1003.79
2018-11-14T11:49:26.949Z,1003.79
2018-11-14T11:50:27.085Z,1003.83
2018-11-14T11:51:27.245Z,1003.82
2018-11-14T11:52:27.375Z,1003.82
2018-11-14T11:53:27.505Z,1003.80
2018-11-14T11:54:27.639Z,1003.78
2018-11-14T11:55:27.790Z,1003.78
2018-11-14T11:56:27.922Z,1003.74
2018-11-14T11:57:28.063Z,1003.73
2018-11-14T11:58:28.197Z,1003.71
2018-11-14T11:59:28.357Z,1003.73
2018-11-14T12:00:28.629Z,1003.72
2018-11-14T12:01:28.632Z,1003.72
2018-11-14T12:02:28.754Z,1003.71
2018-11-14T12:03:28.904Z,1003.73
2018-11-14T12:04:29.029Z,1003.78
2018-11-14T12:05:29.169Z,1003.70
2018-11-14T12:06:29.437Z,1003.72
2018-11-14T12:07:29.516Z,1003.72
2018-11-14T12:08:29.637Z,1003.73
2018-11-14T12:09:29.774Z,1003.74
2018-11-14T12:10:29.913Z,1003.71
2018-11-14T12:11:30.063Z,1003.74
2018-11-14T12:12:30.198Z,1003.70
2018-11-14T12:13:30.368Z,1003.68
2018-11-14T12:14:30.464Z,1003.66
2018-11-14T12:15:30.613Z,1003.65
2018-11-14T12:16:30.853Z,1003.65
2018-11-14T12:17:30.892Z,1003.66
2018-11-14T12:18:30.993Z,1003.66
2018-11-14T12:19:31.153Z,1003.61
2018-11-14T12:20:31.282Z,1003.63
2018-11-14T12:21:31.410Z,1003.63
2018-11-14T12:22:31.545Z,1003.64
2018-11-14T12:23:31.725Z,1003.66
2018-11-14T12:24:31.820Z,1003.66
2018-11-14T12:25:31.953Z,1003.62
2018-11-14T12:26:32.092Z,1003.60
2018-11-14T12:27:32.275Z,1003.55
2018-11-14T12:28:32.390Z,1003.56
2018-11-14T12:29:32.534Z,1003.56
2018-11-14T12:30:32.774Z,1003.57
2018-11-14T12:31:32.856Z,1003.55
2018-11-14T12:32:32.984Z,1003.55
2018-11-14T12:33:33.122Z,1003.55
2018-11-14T12:34:33.270Z,1003.57
2018-11-14T12:35:33.431Z,1003.55
2018-11-14T12:36:33.545Z,1003.54
2018-11-14T12:37:33.678Z,1003.52
2018-11-14T12:38:33.837Z,1003.59
2018-11-14T12:39:33.972Z,1003.57
2018-11-14T12:40:34.109Z,1003.54
2018-11-14T12:41:34.231Z,1003.56
2018-11-14T12:42:34.370Z,1003.52
2018-11-14T12:43:34.522Z,1003.53
2018-11-14T12:44:34.726Z,1003.53
2018-11-14T12:45:34.744Z,1003.49
2018-11-14T12:46:34.872Z,1003.51
2018-11-14T12:47:35.034Z,1003.45
2018-11-14T12:48:35.161Z,1003.47
2018-11-14T12:49:35.300Z,1003.44
2018-11-14T12:50:35.439Z,1003.40
2018-11-14T12:51:35.596Z,1003.37
2018-11-14T12:52:35.757Z,1003.33
2018-11-14T12:53:35.860Z,1003.31
2018-11-14T12:54:35.992Z,1003.36
2018-11-14T12:55:36.131Z,1003.32
2018-11-14T12:56:36.261Z,1003.32
2018-11-14T12:57:36.394Z,1003.30
2018-11-14T12:58:36.524Z,1003.29
2018-11-14T12:59:36.722Z,1003.28
2018-11-14T13:00:36.882Z,1003.28
2018-11-14T13:01:36.889Z,1003.23
2018-11-14T13:02:37.031Z,1003.22
2018-11-14T13:03:37.166Z,1003.22
2018-11-14T13:04:37.920Z,1003.17
2018-11-14T13:05:37.458Z,1003.15
2018-11-14T13:06:37.607Z,1003.11
2018-11-14T13:07:37.734Z,1003.11
2018-11-14T13:08:37.864Z,1003.09
2018-11-14T13:09:38.003Z,1003.08
2018-11-14T13:10:38.137Z,1003.10
2018-11-14T13:11:38.270Z,1003.11
2018-11-14T13:12:38.404Z,1003.14
2018-11-14T13:13:38.543Z,1003.15
2018-11-14T13:14:38.699Z,1003.11
2018-11-14T13:15:38.835Z,1003.09
2018-11-14T13:16:38.975Z,1003.10
2018-11-14T13:17:39.120Z,1003.07
2018-11-14T13:18:39.269Z,1003.09
2018-11-14T13:19:40.207Z,1003.05
2018-11-14T13:20:39.545Z,1003.07
2018-11-14T13:21:39.679Z,1003.04
2018-11-14T13:22:39.848Z,1003.03
2018-11-14T13:23:39.980Z,1003.05
2018-11-14T13:24:40.121Z,1003.03
2018-11-14T13:25:40.268Z,1002.99
2018-11-14T13:26:40.415Z,1002.94
2018-11-14T13:27:40.646Z,1002.94
2018-11-14T13:28:40.701Z,1002.93
2018-11-14T13:29:40.799Z,1002.90
2018-11-14T13:30:40.934Z,1002.89
2018-11-14T13:31:41.085Z,1002.86
2018-11-14T13:32:41.214Z,1002.87
2018-11-14T13:33:41.355Z,1002.86
2018-11-14T13:34:41.525Z,1002.84
2018-11-14T13:35:41.656Z,1002.84
2018-11-14T13:36:41.789Z,1002.84
2018-11-14T13:37:41.944Z,1002.87
2018-11-14T13:38:42.080Z,1002.90
2018-11-14T13:39:42.211Z,1002.90
2018-11-14T13:40:42.346Z,1002.92
2018-11-14T13:41:42.494Z,1002.92
2018-11-14T13:42:42.627Z,1002.89
2018-11-14T13:43:42.762Z,1002.96
2018-11-14T13:44:42.895Z,1002.92
2018-11-14T13:45:43.063Z,1002.89
2018-11-14T13:46:43.188Z,1002.96
2018-11-14T13:47:43.320Z,1002.97
2018-11-14T13:48:43.526Z,1002.95
2018-11-14T13:49:43.837Z,1002.98
2018-11-14T13:50:43.928Z,1002.97
2018-11-14T13:51:43.888Z,1002.95
2018-11-14T13:52:44.016Z,1002.99
2018-11-14T13:53:44.158Z,1002.96
2018-11-14T13:54:44.296Z,1002.97
2018-11-14T13:55:44.440Z,1002.96
2018-11-14T13:56:44.579Z,1002.95
2018-11-14T13:57:44.748Z,1002.95
2018-11-14T13:58:44.884Z,1002.88
2018-11-14T13:59:45.021Z,1002.91
2018-11-14T14:00:45.170Z,1002.92
2018-11-14T14:01:45.338Z,1002.94
2018-11-14T14:02:45.466Z,1002.94
2018-11-14T14:03:45.614Z,1002.98
2018-11-14T14:04:45.744Z,1002.95
2018-11-14T14:05:45.899Z,1002.93
2018-11-14T14:06:46.037Z,1002.94
2018-11-14T14:07:46.172Z,1002.93
2018-11-14T14:08:46.304Z,1002.92
2018-11-14T14:09:46.480Z,1002.94
2018-11-14T14:10:46.606Z,1002.95
2018-11-14T14:11:46.744Z,1002.98
2018-11-14T14:12:46.880Z,1002.99
2018-11-14T14:13:47.046Z,1002.97
2018-11-14T14:14:47.168Z,1003.02
2018-11-14T14:15:48.127Z,1003.00
2018-11-14T14:16:47.445Z,1002.98
2018-11-14T14:17:47.567Z,1002.99
2018-11-14T14:18:47.702Z,1003.00
2018-11-14T14:19:47.871Z,1003.00
2018-11-14T14:20:48.007Z,1003.01
2018-11-14T14:21:48.138Z,1003.02
2018-11-14T14:22:48.275Z,1003.01
2018-11-14T14:23:48.448Z,1003.05
2018-11-14T14:24:48.601Z,1003.11
2018-11-14T14:25:48.735Z,1003.10
2018-11-14T14:26:48.871Z,1003.09
2018-11-14T14:27:49.034Z,1003.12
2018-11-14T14:28:49.165Z,1003.12
2018-11-14T14:29:49.301Z,1003.08
2018-11-14T14:30:49.471Z,1003.08
2018-11-14T14:31:49.602Z,1003.07
2018-11-14T14:32:49.733Z,1003.07
2018-11-14T14:33:49.868Z,1003.12
2018-11-14T14:34:50.004Z,1003.12
2018-11-14T14:35:50.163Z,1003.12
2018-11-14T14:36:50.324Z,1003.13
2018-11-14T14:37:50.502Z,1003.14
2018-11-14T14:38:50.590Z,1003.18
2018-11-14T14:39:50.761Z,1003.18
2018-11-14T14:40:50.894Z,1003.18
2018-11-14T14:41:51.030Z,1003.18
2018-11-14T14:42:51.175Z,1003.23
2018-11-14T14:43:51.337Z,1003.17
2018-11-14T14:44:51.499Z,1003.20
2018-11-14T14:45:51.636Z,1003.17
2018-11-14T14:46:51.773Z,1003.21
2018-11-14T14:47:51.931Z,1003.18
2018-11-14T14:48:52.193Z,1003.16
2018-11-14T14:49:52.153Z,1003.20
2018-11-14T14:50:52.288Z,1003.18
2018-11-14T14:51:52.433Z,1003.18
2018-11-14T14:52:52.562Z,1003.17
2018-11-14T14:53:52.712Z,1003.17
2018-11-14T14:54:52.848Z,1003.17
2018-11-14T14:55:52.989Z,1003.15
2018-11-14T14:56:53.126Z,1003.15
2018-11-14T14:57:53.255Z,1003.14
2018-11-14T14:58:53.394Z,1003.13
2018-11-14T14:59:53.549Z,1003.08
2018-11-14T15:00:53.680Z,1003.04
2018-11-14T15:01:53.822Z,1003.06
2018-11-14T15:02:53.962Z,1003.07
2018-11-14T15:03:54.113Z,1003.01
2018-11-14T15:04:54.245Z,1002.99
2018-11-14T15:05:54.385Z,1003.02
2018-11-14T15:06:54.524Z,1003.06
2018-11-14T15:07:54.705Z,1003.01
2018-11-14T15:08:54.832Z,1003.05
2018-11-14T15:09:54.968Z,1003.06
2018-11-14T15:10:55.106Z,1003.04
2018-11-14T15:11:55.277Z,1003.05
2018-11-14T15:12:55.404Z,1003.03
2018-11-14T15:13:55.532Z,1003.05
2018-11-14T15:14:55.674Z,1003.06
2018-11-14T15:15:55.843Z,1003.07
2018-11-14T15:16:55.985Z,1003.07
2018-11-14T15:17:56.123Z,1003.06
2018-11-14T15:18:56.255Z,1003.06
2018-11-14T15:19:56.401Z,1003.09
2018-11-14T15:20:56.533Z,1003.02
2018-11-14T15:21:56.670Z,1003.05
2018-11-14T15:22:56.805Z,1003.08
2018-11-14T15:23:56.961Z,1003.02
2018-11-14T15:24:57.192Z,1003.05
2018-11-14T15:25:57.205Z,1003.01
2018-11-14T15:26:57.368Z,1003.03
2018-11-14T15:27:57.513Z,1003.05
2018-11-14T15:28:57.794Z,1003.06
2018-11-14T15:29:57.749Z,1003.10
2018-11-14T15:30:57.874Z,1003.04
2018-11-14T15:31:58.023Z,1003.06
2018-11-14T15:32:58.154Z,1003.02
2018-11-14T15:33:58.287Z,1003.04
2018-11-14T15:34:58.470Z,1003.04
2018-11-14T15:35:58.648Z,1003.06
2018-11-14T15:36:58.713Z,1003.00
2018-11-14T15:37:58.850Z,1003.03
2018-11-14T15:38:58.980Z,1003.02
2018-11-14T15:39:59.113Z,1002.97
2018-11-14T15:40:59.248Z,1002.96
2018-11-14T15:41:59.379Z,1002.94
2018-11-14T15:42:59.514Z,1002.92
2018-11-14T15:43:59.693Z,1002.89
2018-11-14T15:44:59.819Z,1002.89
2018-11-14T15:45:59.958Z,1002.86
2018-11-14T15:47:00.117Z,1002.81
2018-11-14T15:48:00.250Z,1002.81
2018-11-14T15:49:00.389Z,1002.79
2018-11-14T15:50:00.525Z,1002.75
2018-11-14T15:51:00.662Z,1002.80
2018-11-14T15:52:00.794Z,1002.79
2018-11-14T15:53:00.937Z,1002.83
2018-11-14T15:54:01.072Z,1002.82
2018-11-14T15:55:01.230Z,1002.84
2018-11-14T15:56:02.118Z,1002.78
2018-11-14T15:57:01.521Z,1002.80
2018-11-14T15:58:01.724Z,1002.76
2018-11-14T15:59:02.614Z,1002.75
2018-11-14T16:00:01.907Z,1002.73
2018-11-14T16:01:02.055Z,1002.72
2018-11-14T16:02:02.180Z,1002.72
2018-11-14T16:03:02.312Z,1002.69
2018-11-14T16:04:02.451Z,1002.69
2018-11-14T16:05:02.614Z,1002.73
2018-11-14T16:06:02.743Z,1002.69
2018-11-14T16:07:02.876Z,1002.73
2018-11-14T16:08:03.004Z,1002.71
2018-11-14T16:09:03.159Z,1002.75
2018-11-14T16:10:03.295Z,1002.75
2018-11-14T16:11:03.423Z,1002.67
2018-11-14T16:12:03.559Z,1002.65
2018-11-14T16:13:03.685Z,1002.62
2018-11-14T16:14:03.827Z,1002.58
2018-11-14T16:15:03.957Z,1002.55
2018-11-14T16:16:04.094Z,1002.53
2018-11-14T16:17:04.227Z,1002.54
2018-11-14T16:18:04.425Z,1002.51
2018-11-14T16:19:04.494Z,1002.53
2018-11-14T16:20:04.636Z,1002.53
2018-11-14T16:21:04.776Z,1002.53
2018-11-14T16:22:04.907Z,1002.53
2018-11-14T16:23:05.042Z,1002.53
2018-11-14T16:24:05.173Z,1002.53
2018-11-14T16:25:05.396Z,1002.53
2018-11-14T16:26:05.453Z,1002.54
2018-11-14T16:27:05.594Z,1002.54
2018-11-14T16:28:05.733Z,1002.49
2018-11-14T16:29:05.861Z,1002.49
2018-11-14T16:30:05.998Z,1002.51
2018-11-14T16:31:06.137Z,1002.52
2018-11-14T16:32:06.273Z,1002.50
2018-11-14T16:33:06.401Z,1002.53
2018-11-14T16:34:06.535Z,1002.53
2018-11-14T16:35:06.678Z,1002.54
2018-11-14T16:36:06.824Z,1002.52
2018-11-14T16:37:06.964Z,1002.55
2018-11-14T16:38:07.163Z,1002.50
2018-11-14T16:39:07.234Z,1002.54
2018-11-14T16:40:07.372Z,1002.55
2018-11-14T16:41:07.511Z,1002.53
2018-11-14T16:42:07.640Z,1002.49
2018-11-14T16:43:07.786Z,1002.50
2018-11-14T16:44:07.920Z,1002.56
2018-11-14T16:45:08.051Z,1002.56
2018-11-14T16:46:08.187Z,1002.57
2018-11-14T16:47:08.334Z,1002.60
2018-11-14T16:48:08.484Z,1002.59
2018-11-14T16:49:08.613Z,1002.58
2018-11-14T16:50:08.747Z,1002.62
2018-11-14T16:51:08.945Z,1002.57
2018-11-14T16:52:09.032Z,1002.54
2018-11-14T16:53:09.163Z,1002.51
2018-11-14T16:54:09.313Z,1002.46
2018-11-14T16:55:09.460Z,1002.46
2018-11-14T16:56:09.604Z,1002.47
2018-11-14T16:57:09.794Z,1002.45
2018-11-14T16:58:09.812Z,1002.48
2018-11-14T16:59:09.948Z,1002.47
2018-11-14T17:00:10.097Z,1002.48
2018-11-14T17:01:10.234Z,1002.48
2018-11-14T17:02:10.364Z,1002.46
2018-11-14T17:03:10.511Z,1002.44
2018-11-14T17:04:10.639Z,1002.42
2018-11-14T17:05:10.804Z,1002.44
2018-11-14T17:06:10.941Z,1002.44
2018-11-14T17:07:11.071Z,1002.41
2018-11-14T17:08:11.232Z,1002.42
2018-11-14T17:09:11.354Z,1002.36
2018-11-14T17:10:11.487Z,1002.40
2018-11-14T17:11:11.631Z,1002.36
2018-11-14T17:12:11.787Z,1002.32
2018-11-14T17:13:11.925Z,1002.34
2018-11-14T17:14:12.092Z,1002.37
2018-11-14T17:15:12.187Z,1002.34
2018-11-14T17:16:12.325Z,1002.35
2018-11-14T17:17:12.454Z,1002.33
2018-11-14T17:18:12.590Z,1002.35
2018-11-14T17:19:12.720Z,1002.30
2018-11-14T17:20:12.847Z,1002.35
2018-11-14T17:21:12.972Z,1002.29
2018-11-14T17:22:13.111Z,1002.28
2018-11-14T17:23:13.252Z,1002.26
2018-11-14T17:24:13.384Z,1002.27
2018-11-14T17:25:13.512Z,1002.24
2018-11-14T17:26:14.705Z,1002.22
2018-11-14T17:27:13.773Z,1002.22
2018-11-14T17:28:13.906Z,1002.15
2018-11-14T17:29:14.106Z,1002.17
2018-11-14T17:30:14.136Z,1002.18
2018-11-14T17:31:14.269Z,1002.16
2018-11-14T17:32:14.397Z,1002.18
2018-11-14T17:33:14.587Z,1002.16
2018-11-14T17:34:14.669Z,1002.14
2018-11-14T17:35:14.808Z,1002.08
2018-11-14T17:36:14.958Z,1002.11
2018-11-14T17:37:15.095Z,1002.08
2018-11-14T17:38:15.223Z,1002.08
2018-11-14T17:39:15.363Z,1002.08
2018-11-14T17:40:15.504Z,1002.11
2018-11-14T17:41:15.638Z,1002.13
2018-11-14T17:42:15.860Z,1002.12
2018-11-14T17:43:15.925Z,1002.13
2018-11-14T17:44:16.059Z,1002.13
2018-11-14T17:45:16.189Z,1002.14
2018-11-14T17:46:16.332Z,1002.09
2018-11-14T17:47:16.455Z,1002.12
2018-11-14T17:48:16.585Z,1002.10
2018-11-14T17:49:16.719Z,1002.07
2018-11-14T17:50:16.873Z,1002.10
2018-11-14T17:51:16.984Z,1002.08
2018-11-14T17:52:17.112Z,1002.05
2018-11-14T17:53:17.247Z,1002.04
2018-11-14T17:54:17.383Z,1002.05
2018-11-14T17:55:17.561Z,1002.08
2018-11-14T17:56:17.651Z,1002.05
2018-11-14T17:57:17.783Z,1002.06
2018-11-14T17:58:17.929Z,1002.06
2018-11-14T17:59:18.043Z,1002.06
2018-11-14T18:00:18.173Z,1002.09
2018-11-14T18:01:18.303Z,1002.07
2018-11-14T18:02:18.433Z,1002.08
2018-11-14T18:03:18.566Z,1002.11
2018-11-14T18:04:18.696Z,1002.08
2018-11-14T18:05:18.844Z,1002.14
2018-11-14T18:06:18.973Z,1002.12
2018-11-14T18:07:19.219Z,1002.18
2018-11-14T18:08:19.239Z,1002.16
2018-11-14T18:09:19.377Z,1002.18
2018-11-14T18:10:19.521Z,1002.17
2018-11-14T18:11:19.649Z,1002.16
2018-11-14T18:12:19.834Z,1002.15
2018-11-14T18:13:19.963Z,1002.14
2018-11-14T18:14:20.098Z,1002.14
2018-11-14T18:15:20.342Z,1002.14
2018-11-14T18:16:20.308Z,1002.14
2018-11-14T18:17:20.439Z,1002.12
2018-11-14T18:18:20.569Z,1002.13
2018-11-14T18:19:20.702Z,1002.13
2018-11-14T18:20:20.877Z,1002.13
2018-11-14T18:21:21.043Z,1002.16
2018-11-14T18:22:21.176Z,1002.11
2018-11-14T18:23:21.341Z,1002.15
2018-11-14T18:24:21.483Z,1002.12
2018-11-14T18:25:21.609Z,1002.12
2018-11-14T18:26:21.744Z,1002.12
2018-11-14T18:27:21.926Z,1002.15
2018-11-14T18:28:22.049Z,1002.12
2018-11-14T18:29:22.250Z,1002.14
2018-11-14T18:30:22.326Z,1002.17
2018-11-14T18:31:22.417Z,1002.13
2018-11-14T18:32:22.543Z,1002.12
2018-11-14T18:33:22.675Z,1002.11
2018-11-14T18:34:22.821Z,1002.11
2018-11-14T18:35:22.955Z,1002.12
2018-11-14T18:36:23.124Z,1002.12
2018-11-14T18:37:23.223Z,1002.12
2018-11-14T18:38:23.365Z,1002.10
2018-11-14T18:39:23.557Z,1002.13
2018-11-14T18:40:23.648Z,1002.12
2018-11-14T18:41:24.641Z,1002.12
2018-11-14T18:42:23.938Z,1002.18
2018-11-14T18:43:24.067Z,1002.17
2018-11-14T18:44:24.269Z,1002.15
2018-11-14T18:45:24.264Z,1002.21
2018-11-14T18:46:24.413Z,1002.16
2018-11-14T18:47:24.558Z,1002.23
2018-11-14T18:48:24.692Z,1002.21
2018-11-14T18:49:24.835Z,1002.27
2018-11-14T18:50:24.951Z,1002.25
2018-11-14T18:51:25.091Z,1002.27
2018-11-14T18:52:25.215Z,1002.29
2018-11-14T18:53:25.363Z,1002.26
2018-11-14T18:54:25.497Z,1002.27
2018-11-14T18:55:25.627Z,1002.29
2018-11-14T18:56:25.764Z,1002.26
2018-11-14T18:57:25.893Z,1002.27
2018-11-14T18:58:26.026Z,1002.27
2018-11-14T18:59:26.149Z,1002.28
2018-11-14T19:00:26.288Z,1002.32
2018-11-14T19:01:26.454Z,1002.34
2018-11-14T19:02:26.581Z,1002.38
2018-11-14T19:03:26.710Z,1002.37
2018-11-14T19:04:26.842Z,1002.34
2018-11-14T19:05:26.988Z,1002.34
2018-11-14T19:06:27.112Z,1002.38
2018-11-14T19:07:27.247Z,1002.40
2018-11-14T19:08:27.380Z,1002.42
2018-11-14T19:09:27.547Z,1002.36
2018-11-14T19:10:27.776Z,1002.39
2018-11-14T19:11:27.785Z,1002.34
2018-11-14T19:12:27.951Z,1002.34
2018-11-14T19:13:28.056Z,1002.34
2018-11-14T19:14:28.187Z,1002.36
2018-11-14T19:15:28.328Z,1002.34
2018-11-14T19:16:28.460Z,1002.35
2018-11-14T19:17:28.630Z,1002.37
2018-11-14T19:18:28.822Z,1002.27
2018-11-14T19:19:28.902Z,1002.29
2018-11-14T19:20:29.039Z,1002.28
2018-11-14T19:21:29.195Z,1002.30
2018-11-14T19:22:29.324Z,1002.28
2018-11-14T19:23:29.455Z,1002.32
2018-11-14T19:24:29.625Z,1002.36
2018-11-14T19:25:29.720Z,1002.38
2018-11-14T19:26:29.851Z,1002.35
2018-11-14T19:27:29.981Z,1002.33
2018-11-14T19:28:30.110Z,1002.36
2018-11-14T19:29:30.252Z,1002.33
2018-11-14T19:30:30.415Z,1002.36
2018-11-14T19:31:30.513Z,1002.39
2018-11-14T19:32:30.641Z,1002.40
2018-11-14T19:33:30.778Z,1002.44
2018-11-14T19:34:30.914Z,1002.46
2018-11-14T19:35:31.047Z,1002.44
2018-11-14T19:36:31.172Z,1002.43
2018-11-14T19:37:31.322Z,1002.46
2018-11-14T19:38:31.454Z,1002.48
2018-11-14T19:39:31.583Z,1002.47
2018-11-14T19:40:31.727Z,1002.47
2018-11-14T19:41:31.848Z,1002.52
2018-11-14T19:42:31.986Z,1002.47
2018-11-14T19:43:32.118Z,1002.43
2018-11-14T19:44:32.249Z,1002.42
2018-11-14T19:45:32.383Z,1002.42
2018-11-14T19:46:32.518Z,1002.43
2018-11-14T19:47:32.652Z,1002.41
2018-11-14T19:48:32.781Z,1002.41
2018-11-14T19:49:32.928Z,1002.42
2018-11-14T19:50:33.130Z,1002.43
2018-11-14T19:51:33.183Z,1002.39
2018-11-14T19:52:33.318Z,1002.35
2018-11-14T19:53:33.458Z,1002.38
2018-11-14T19:54:33.578Z,1002.38
2018-11-14T19:55:33.748Z,1002.38
2018-11-14T19:56:33.849Z,1002.36
2018-11-14T19:57:33.982Z,1002.36
2018-11-14T19:58:34.118Z,1002.33
2018-11-14T19:59:34.311Z,1002.37
2018-11-14T20:00:34.312Z,1002.41
2018-11-14T20:01:34.452Z,1002.39
2018-11-14T20:02:34.592Z,1002.45
2018-11-14T20:03:34.719Z,1002.47
2018-11-14T20:04:34.846Z,1002.51
2018-11-14T20:05:35.805Z,1002.51
2018-11-14T20:06:35.099Z,1002.52
2018-11-14T20:07:35.233Z,1002.54
2018-11-14T20:08:35.379Z,1002.50
2018-11-14T20:09:35.491Z,1002.55
2018-11-14T20:10:35.723Z,1002.49
2018-11-14T20:11:35.772Z,1002.54
2018-11-14T20:12:35.901Z,1002.54
2018-11-14T20:13:36.039Z,1002.51
2018-11-14T20:14:36.200Z,1002.56
2018-11-14T20:15:36.329Z,1002.58
2018-11-14T20:16:36.462Z,1002.54
2018-11-14T20:17:36.596Z,1002.55
2018-11-14T20:18:36.727Z,1002.55
2018-11-14T20:19:36.867Z,1002.53
2018-11-14T20:20:37.000Z,1002.51
2018-11-14T20:21:37.165Z,1002.52
2018-11-14T20:22:37.287Z,1002.53
2018-11-14T20:23:37.414Z,1002.50
2018-11-14T20:24:37.543Z,1002.52
2018-11-14T20:25:37.736Z,1002.51
2018-11-14T20:26:37.830Z,1002.51
2018-11-14T20:27:37.958Z,1002.54
2018-11-14T20:28:38.090Z,1002.52
2018-11-14T20:29:38.246Z,1002.55
2018-11-14T20:30:38.372Z,1002.57
2018-11-14T20:31:38.612Z,1002.56
2018-11-14T20:32:38.642Z,1002.51
2018-11-14T20:33:38.811Z,1002.52
2018-11-14T20:34:38.937Z,1002.49
2018-11-14T20:35:39.071Z,1002.51
2018-11-14T20:36:39.200Z,1002.47
2018-11-14T20:37:39.356Z,1002.47
2018-11-14T20:38:39.480Z,1002.45
2018-11-14T20:39:39.620Z,1002.45
2018-11-14T20:40:39.753Z,1002.50
2018-11-14T20:41:39.914Z,1002.50
2018-11-14T20:42:40.055Z,1002.50
2018-11-14T20:43:40.168Z,1002.51
2018-11-14T20:44:40.304Z,1002.44
2018-11-14T20:45:40.470Z,1002.52
2018-11-14T20:46:40.603Z,1002.47
2018-11-14T20:47:40.734Z,1002.46
2018-11-14T20:48:40.866Z,1002.50
2018-11-14T20:49:41.009Z,1002.49
2018-11-14T20:50:41.147Z,1002.50
2018-11-14T20:51:41.271Z,1002.48
2018-11-14T20:52:41.407Z,1002.49
2018-11-14T20:53:41.533Z,1002.50
2018-11-14T20:54:41.707Z,1002.51
2018-11-14T20:55:41.743Z,1002.51
2018-11-14T20:56:41.866Z,1002.52
2018-11-14T20:57:42.010Z,1002.55
2018-11-14T20:58:42.142Z,1002.57
2018-11-14T20:59:42.276Z,1002.55
2018-11-14T21:00:42.405Z,1002.57
2018-11-14T21:01:42.539Z,1002.55
2018-11-14T21:02:42.687Z,1002.51
2018-11-14T21:03:42.816Z,1002.49
2018-11-14T21:04:42.947Z,1002.47
2018-11-14T21:05:43.170Z,1002.48
2018-11-14T21:06:43.224Z,1002.49
2018-11-14T21:07:43.365Z,1002.47
2018-11-14T21:08:43.491Z,1002.40
2018-11-14T21:09:43.701Z,1002.43
2018-11-14T21:10:43.749Z,1002.44
2018-11-14T21:11:43.889Z,1002.45
2018-11-14T21:12:44.019Z,1002.46
2018-11-14T21:13:44.153Z,1002.42
2018-11-14T21:14:44.287Z,1002.43
2018-11-14T21:15:44.420Z,1002.44
2018-11-14T21:16:44.548Z,1002.46
2018-11-14T21:17:44.690Z,1002.47
2018-11-14T21:18:44.820Z,1002.50
2018-11-14T21:19:44.951Z,1002.52
2018-11-14T21:20:45.081Z,1002.49
2018-11-14T21:21:45.213Z,1002.50
2018-11-14T21:22:45.385Z,1002.54
2018-11-14T21:23:45.487Z,1002.50
2018-11-14T21:24:45.621Z,1002.51
2018-11-14T21:25:45.753Z,1002.49
2018-11-14T21:26:45.887Z,1002.47
2018-11-14T21:27:46.019Z,1002.48
2018-11-14T21:28:46.154Z,1002.48
2018-11-14T21:29:46.402Z,1002.44
2018-11-14T21:30:46.427Z,1002.44
2018-11-14T21:31:46.553Z,1002.45
2018-11-14T21:32:46.685Z,1002.45
2018-11-14T21:33:46.812Z,1002.46
2018-11-14T21:34:46.967Z,1002.43
2018-11-14T21:35:47.101Z,1002.47
2018-11-14T21:36:47.234Z,1002.46
2018-11-14T21:37:47.370Z,1002.40
2018-11-14T21:38:47.516Z,1002.40
2018-11-14T21:39:47.649Z,1002.36
2018-11-14T21:40:47.775Z,1002.36
2018-11-14T21:41:47.928Z,1002.41
2018-11-14T21:42:48.057Z,1002.38
2018-11-14T21:43:48.192Z,1002.42
2018-11-14T21:44:48.327Z,1002.40
2018-11-14T21:45:48.455Z,1002.37